sensor_id;sensor_type;location;lat;lon;timestamp;P1;durP1;ratioP1;P2;durP2;ratioP2
7001;SDS011;3541;53.230;10.518;2024-01-11T00:00:28;27.60;;;12.90;;
7001;SDS011;3541;53.230;10.518;2024-01-11T00:02:56;26.37;;;14.47;;
7001;SDS011;3541;53.230;10.518;2024-01-11T00:05:22;27.63;;;15.17;;
7001;SDS011;3541;53.230;10.518;2024-01-11T00:07:49;26.30;;;14.37;;
7001;SDS011;3541;53.230;10.518;2024-01-11T00:10:17;28.13;;;14.17;;
7001;SDS011;3541;53.230;10.518;2024-01-11T00:12:44;25.70;;;15.17;;
7001;SDS011;3541;53.230;10.518;2024-01-11T00:15:10;26.30;;;14.73;;
7001;SDS011;3541;53.230;10.518;2024-01-11T00:17:37;27.40;;;15.07;;
7001;SDS011;3541;53.230;10.518;2024-01-11T00:20:06;25.80;;;14.40;;
7001;SDS011;3541;53.230;10.518;2024-01-11T00:22:34;25.83;;;14.23;;
7001;SDS011;3541;53.230;10.518;2024-01-11T00:25:00;24.60;;;13.93;;
7001;SDS011;3541;53.230;10.518;2024-01-11T00:27:27;24.07;;;12.67;;
7001;SDS011;3541;53.230;10.518;2024-01-11T00:29:54;23.33;;;12.83;;
7001;SDS011;3541;53.230;10.518;2024-01-11T00:32:20;24.00;;;13.30;;
7001;SDS011;3541;53.230;10.518;2024-01-11T00:34:47;23.77;;;13.17;;
7001;SDS011;3541;53.230;10.518;2024-01-11T00:37:16;26.00;;;14.07;;
7001;SDS011;3541;53.230;10.518;2024-01-11T00:39:43;24.03;;;13.20;;
7001;SDS011;3541;53.230;10.518;2024-01-11T00:42:09;24.00;;;13.50;;
7001;SDS011;3541;53.230;10.518;2024-01-11T00:44:36;23.30;;;14.00;;
7001;SDS011;3541;53.230;10.518;2024-01-11T00:47:03;25.63;;;13.90;;
7001;SDS011;3541;53.230;10.518;2024-01-11T00:49:29;24.17;;;13.43;;
7001;SDS011;3541;53.230;10.518;2024-01-11T00:51:57;26.33;;;13.70;;
7001;SDS011;3541;53.230;10.518;2024-01-11T00:54:24;21.27;;;12.03;;
7001;SDS011;3541;53.230;10.518;2024-01-11T00:56:51;22.23;;;13.63;;
7001;SDS011;3541;53.230;10.518;2024-01-11T00:59:18;25.90;;;14.50;;
7001;SDS011;3541;53.230;10.518;2024-01-11T01:01:46;25.93;;;14.40;;
7001;SDS011;3541;53.230;10.518;2024-01-11T01:04:13;21.90;;;12.83;;
7001;SDS011;3541;53.230;10.518;2024-01-11T01:06:40;26.73;;;13.63;;
7001;SDS011;3541;53.230;10.518;2024-01-11T01:09:07;24.70;;;13.73;;
7001;SDS011;3541;53.230;10.518;2024-01-11T01:11:35;24.33;;;13.60;;
7001;SDS011;3541;53.230;10.518;2024-01-11T01:14:02;24.33;;;13.87;;
7001;SDS011;3541;53.230;10.518;2024-01-11T01:16:28;22.83;;;13.20;;
7001;SDS011;3541;53.230;10.518;2024-01-11T01:18:55;21.47;;;12.77;;
7001;SDS011;3541;53.230;10.518;2024-01-11T01:21:22;23.70;;;13.70;;
7001;SDS011;3541;53.230;10.518;2024-01-11T01:23:48;22.57;;;14.03;;
7001;SDS011;3541;53.230;10.518;2024-01-11T01:26:15;26.13;;;14.67;;
7001;SDS011;3541;53.230;10.518;2024-01-11T01:28:43;24.53;;;13.37;;
7001;SDS011;3541;53.230;10.518;2024-01-11T01:31:09;25.77;;;14.97;;
7001;SDS011;3541;53.230;10.518;2024-01-11T01:33:36;26.33;;;15.33;;
7001;SDS011;3541;53.230;10.518;2024-01-11T01:36:03;24.63;;;14.57;;
7001;SDS011;3541;53.230;10.518;2024-01-11T01:38:33;27.63;;;14.57;;
7001;SDS011;3541;53.230;10.518;2024-01-11T01:41:00;26.13;;;14.50;;
7001;SDS011;3541;53.230;10.518;2024-01-11T01:43:27;28.47;;;15.17;;
7001;SDS011;3541;53.230;10.518;2024-01-11T01:45:55;25.60;;;13.90;;
7001;SDS011;3541;53.230;10.518;2024-01-11T01:48:22;26.83;;;15.33;;
7001;SDS011;3541;53.230;10.518;2024-01-11T01:50:49;27.53;;;14.97;;
7001;SDS011;3541;53.230;10.518;2024-01-11T01:53:16;26.17;;;15.17;;
7001;SDS011;3541;53.230;10.518;2024-01-11T01:55:43;27.20;;;15.27;;
7001;SDS011;3541;53.230;10.518;2024-01-11T01:58:10;29.27;;;15.30;;
7001;SDS011;3541;53.230;10.518;2024-01-11T02:00:38;27.27;;;15.03;;
7001;SDS011;3541;53.230;10.518;2024-01-11T02:03:08;22.83;;;14.00;;
7001;SDS011;3541;53.230;10.518;2024-01-11T02:05:35;25.13;;;13.50;;
7001;SDS011;3541;53.230;10.518;2024-01-11T02:08:03;25.23;;;14.57;;
7001;SDS011;3541;53.230;10.518;2024-01-11T02:10:33;25.97;;;14.60;;
7001;SDS011;3541;53.230;10.518;2024-01-11T02:13:01;25.60;;;12.03;;
7001;SDS011;3541;53.230;10.518;2024-01-11T02:15:28;22.73;;;13.17;;
7001;SDS011;3541;53.230;10.518;2024-01-11T02:17:54;21.23;;;11.97;;
7001;SDS011;3541;53.230;10.518;2024-01-11T02:20:22;23.57;;;13.20;;
7001;SDS011;3541;53.230;10.518;2024-01-11T02:22:50;26.77;;;14.50;;
7001;SDS011;3541;53.230;10.518;2024-01-11T02:25:20;30.00;;;15.97;;
7001;SDS011;3541;53.230;10.518;2024-01-11T02:27:47;22.03;;;12.63;;
7001;SDS011;3541;53.230;10.518;2024-01-11T02:30:14;24.03;;;13.73;;
7001;SDS011;3541;53.230;10.518;2024-01-11T02:32:41;23.43;;;13.43;;
7001;SDS011;3541;53.230;10.518;2024-01-11T02:35:11;22.20;;;13.33;;
7001;SDS011;3541;53.230;10.518;2024-01-11T02:37:38;22.30;;;13.33;;
7001;SDS011;3541;53.230;10.518;2024-01-11T02:40:06;21.13;;;12.70;;
7001;SDS011;3541;53.230;10.518;2024-01-11T02:42:36;25.87;;;13.23;;
7001;SDS011;3541;53.230;10.518;2024-01-11T02:45:01;24.40;;;13.80;;
7001;SDS011;3541;53.230;10.518;2024-01-11T02:47:29;20.70;;;12.50;;
7001;SDS011;3541;53.230;10.518;2024-01-11T02:49:56;25.60;;;14.77;;
7001;SDS011;3541;53.230;10.518;2024-01-11T02:52:23;24.93;;;14.13;;
7001;SDS011;3541;53.230;10.518;2024-01-11T02:54:49;23.90;;;14.37;;
7001;SDS011;3541;53.230;10.518;2024-01-11T02:57:16;24.13;;;13.23;;
7001;SDS011;3541;53.230;10.518;2024-01-11T02:59:44;24.87;;;13.50;;
7001;SDS011;3541;53.230;10.518;2024-01-11T03:02:10;24.43;;;14.67;;
7001;SDS011;3541;53.230;10.518;2024-01-11T03:04:37;23.97;;;13.63;;
7001;SDS011;3541;53.230;10.518;2024-01-11T03:07:04;21.77;;;13.10;;
7001;SDS011;3541;53.230;10.518;2024-01-11T03:09:30;24.67;;;13.13;;
7001;SDS011;3541;53.230;10.518;2024-01-11T03:11:57;22.80;;;13.77;;
7001;SDS011;3541;53.230;10.518;2024-01-11T03:14:23;22.27;;;13.33;;
7001;SDS011;3541;53.230;10.518;2024-01-11T03:16:51;20.37;;;11.30;;
7001;SDS011;3541;53.230;10.518;2024-01-11T03:19:18;24.50;;;13.10;;
7001;SDS011;3541;53.230;10.518;2024-01-11T03:21:44;26.67;;;14.07;;
7001;SDS011;3541;53.230;10.518;2024-01-11T03:24:11;23.60;;;12.57;;
7001;SDS011;3541;53.230;10.518;2024-01-11T03:26:38;19.70;;;11.67;;
7001;SDS011;3541;53.230;10.518;2024-01-11T03:29:05;26.73;;;11.93;;
7001;SDS011;3541;53.230;10.518;2024-01-11T03:31:31;22.00;;;12.10;;
7001;SDS011;3541;53.230;10.518;2024-01-11T03:33:59;23.53;;;12.30;;
7001;SDS011;3541;53.230;10.518;2024-01-11T03:36:26;27.63;;;13.43;;
7001;SDS011;3541;53.230;10.518;2024-01-11T03:38:53;22.10;;;12.60;;
7001;SDS011;3541;53.230;10.518;2024-01-11T03:41:19;24.63;;;13.07;;
7001;SDS011;3541;53.230;10.518;2024-01-11T03:43:46;32.03;;;13.57;;
7001;SDS011;3541;53.230;10.518;2024-01-11T03:46:12;25.03;;;13.93;;
7001;SDS011;3541;53.230;10.518;2024-01-11T03:48:39;25.93;;;13.47;;
7001;SDS011;3541;53.230;10.518;2024-01-11T03:51:07;32.13;;;14.67;;
7001;SDS011;3541;53.230;10.518;2024-01-11T03:53:34;25.53;;;13.70;;
7001;SDS011;3541;53.230;10.518;2024-01-11T03:56:01;26.00;;;14.07;;
7001;SDS011;3541;53.230;10.518;2024-01-11T03:58:28;29.10;;;14.57;;
7001;SDS011;3541;53.230;10.518;2024-01-11T04:00:55;34.53;;;15.83;;
7001;SDS011;3541;53.230;10.518;2024-01-11T04:03:21;32.17;;;15.47;;
7001;SDS011;3541;53.230;10.518;2024-01-11T04:05:48;32.90;;;15.07;;
7001;SDS011;3541;53.230;10.518;2024-01-11T04:08:16;31.73;;;15.53;;
7001;SDS011;3541;53.230;10.518;2024-01-11T04:10:43;34.10;;;16.70;;
7001;SDS011;3541;53.230;10.518;2024-01-11T04:13:09;31.13;;;16.13;;
7001;SDS011;3541;53.230;10.518;2024-01-11T04:15:36;34.53;;;15.70;;
7001;SDS011;3541;53.230;10.518;2024-01-11T04:18:03;34.57;;;17.07;;
7001;SDS011;3541;53.230;10.518;2024-01-11T04:20:29;33.40;;;16.97;;
7001;SDS011;3541;53.230;10.518;2024-01-11T04:22:56;33.73;;;15.27;;
7001;SDS011;3541;53.230;10.518;2024-01-11T04:25:24;38.57;;;16.63;;
7001;SDS011;3541;53.230;10.518;2024-01-11T04:27:50;34.60;;;17.90;;
7001;SDS011;3541;53.230;10.518;2024-01-11T04:30:17;30.47;;;16.60;;
7001;SDS011;3541;53.230;10.518;2024-01-11T04:32:44;32.97;;;16.67;;
7001;SDS011;3541;53.230;10.518;2024-01-11T04:35:10;38.53;;;16.90;;
7001;SDS011;3541;53.230;10.518;2024-01-11T04:37:37;36.17;;;17.90;;
7001;SDS011;3541;53.230;10.518;2024-01-11T04:40:04;39.67;;;17.70;;
7001;SDS011;3541;53.230;10.518;2024-01-11T04:42:34;37.60;;;17.07;;
7001;SDS011;3541;53.230;10.518;2024-01-11T04:45:00;34.93;;;17.67;;
7001;SDS011;3541;53.230;10.518;2024-01-11T04:47:30;38.70;;;17.20;;
7001;SDS011;3541;53.230;10.518;2024-01-11T04:49:57;35.37;;;18.30;;
7001;SDS011;3541;53.230;10.518;2024-01-11T04:52:23;33.13;;;17.13;;
7001;SDS011;3541;53.230;10.518;2024-01-11T04:54:50;43.30;;;18.43;;
7001;SDS011;3541;53.230;10.518;2024-01-11T04:57:17;38.10;;;18.73;;
7001;SDS011;3541;53.230;10.518;2024-01-11T04:59:45;39.10;;;19.27;;
7001;SDS011;3541;53.230;10.518;2024-01-11T05:02:11;42.03;;;18.60;;
7001;SDS011;3541;53.230;10.518;2024-01-11T05:04:38;44.80;;;20.57;;
7001;SDS011;3541;53.230;10.518;2024-01-11T05:07:04;41.37;;;19.27;;
7001;SDS011;3541;53.230;10.518;2024-01-11T05:09:31;41.07;;;18.30;;
7001;SDS011;3541;53.230;10.518;2024-01-11T05:11:57;41.50;;;19.87;;
7001;SDS011;3541;53.230;10.518;2024-01-11T05:14:24;42.67;;;18.70;;
7001;SDS011;3541;53.230;10.518;2024-01-11T05:16:52;40.77;;;18.50;;
7001;SDS011;3541;53.230;10.518;2024-01-11T05:19:18;34.30;;;17.47;;
7001;SDS011;3541;53.230;10.518;2024-01-11T05:21:45;39.13;;;18.13;;
7001;SDS011;3541;53.230;10.518;2024-01-11T05:24:12;41.87;;;18.87;;
7001;SDS011;3541;53.230;10.518;2024-01-11T05:26:38;41.17;;;18.93;;
7001;SDS011;3541;53.230;10.518;2024-01-11T05:29:05;39.63;;;19.70;;
7001;SDS011;3541;53.230;10.518;2024-01-11T05:31:31;38.03;;;17.53;;
7001;SDS011;3541;53.230;10.518;2024-01-11T05:33:59;40.63;;;19.37;;
7001;SDS011;3541;53.230;10.518;2024-01-11T05:36:26;39.50;;;19.27;;
7001;SDS011;3541;53.230;10.518;2024-01-11T05:38:52;43.07;;;18.70;;
7001;SDS011;3541;53.230;10.518;2024-01-11T05:41:19;43.73;;;19.23;;
7001;SDS011;3541;53.230;10.518;2024-01-11T05:43:45;38.00;;;18.60;;
7001;SDS011;3541;53.230;10.518;2024-01-11T05:46:12;35.57;;;19.53;;
7001;SDS011;3541;53.230;10.518;2024-01-11T05:48:38;39.87;;;19.10;;
7001;SDS011;3541;53.230;10.518;2024-01-11T05:51:06;44.23;;;18.77;;
7001;SDS011;3541;53.230;10.518;2024-01-11T05:53:34;41.60;;;19.47;;
7001;SDS011;3541;53.230;10.518;2024-01-11T05:56:00;39.67;;;19.97;;
7001;SDS011;3541;53.230;10.518;2024-01-11T05:58:28;47.77;;;22.10;;
7001;SDS011;3541;53.230;10.518;2024-01-11T06:00:54;41.30;;;20.47;;
7001;SDS011;3541;53.230;10.518;2024-01-11T06:03:21;44.27;;;20.73;;
7001;SDS011;3541;53.230;10.518;2024-01-11T06:05:48;46.17;;;21.50;;
7001;SDS011;3541;53.230;10.518;2024-01-11T06:08:15;41.70;;;20.17;;
7001;SDS011;3541;53.230;10.518;2024-01-11T06:10:42;50.50;;;22.27;;
7001;SDS011;3541;53.230;10.518;2024-01-11T06:13:09;47.97;;;20.47;;
7001;SDS011;3541;53.230;10.518;2024-01-11T06:15:35;44.20;;;20.27;;
7001;SDS011;3541;53.230;10.518;2024-01-11T06:18:02;47.47;;;21.40;;
7001;SDS011;3541;53.230;10.518;2024-01-11T06:20:30;46.17;;;21.23;;
7001;SDS011;3541;53.230;10.518;2024-01-11T06:22:56;44.30;;;21.10;;
7001;SDS011;3541;53.230;10.518;2024-01-11T06:25:24;44.87;;;21.00;;
7001;SDS011;3541;53.230;10.518;2024-01-11T06:27:51;45.53;;;21.57;;
7001;SDS011;3541;53.230;10.518;2024-01-11T06:30:17;46.10;;;21.70;;
7001;SDS011;3541;53.230;10.518;2024-01-11T06:32:44;48.93;;;20.80;;
7001;SDS011;3541;53.230;10.518;2024-01-11T06:35:10;48.90;;;21.40;;
7001;SDS011;3541;53.230;10.518;2024-01-11T06:37:37;49.50;;;21.83;;
7001;SDS011;3541;53.230;10.518;2024-01-11T06:40:04;47.20;;;21.60;;
7001;SDS011;3541;53.230;10.518;2024-01-11T06:42:34;49.63;;;21.80;;
7001;SDS011;3541;53.230;10.518;2024-01-11T06:45:01;47.97;;;22.57;;
7001;SDS011;3541;53.230;10.518;2024-01-11T06:47:28;49.03;;;21.97;;
7001;SDS011;3541;53.230;10.518;2024-01-11T06:49:55;51.07;;;22.13;;
7001;SDS011;3541;53.230;10.518;2024-01-11T06:52:21;50.83;;;23.93;;
7001;SDS011;3541;53.230;10.518;2024-01-11T06:54:48;52.33;;;23.50;;
7001;SDS011;3541;53.230;10.518;2024-01-11T06:57:14;53.20;;;24.17;;
7001;SDS011;3541;53.230;10.518;2024-01-11T06:59:42;51.00;;;22.37;;
7001;SDS011;3541;53.230;10.518;2024-01-11T07:02:11;52.70;;;23.00;;
7001;SDS011;3541;53.230;10.518;2024-01-11T07:04:38;50.57;;;23.27;;
7001;SDS011;3541;53.230;10.518;2024-01-11T07:07:09;54.70;;;24.47;;
7001;SDS011;3541;53.230;10.518;2024-01-11T07:09:36;50.13;;;23.27;;
7001;SDS011;3541;53.230;10.518;2024-01-11T07:12:03;52.93;;;22.17;;
7001;SDS011;3541;53.230;10.518;2024-01-11T07:14:30;53.90;;;22.40;;
7001;SDS011;3541;53.230;10.518;2024-01-11T07:16:58;54.17;;;22.90;;
7001;SDS011;3541;53.230;10.518;2024-01-11T07:19:24;60.10;;;24.40;;
7001;SDS011;3541;53.230;10.518;2024-01-11T07:21:51;59.50;;;24.87;;
7001;SDS011;3541;53.230;10.518;2024-01-11T07:24:18;56.73;;;23.63;;
7001;SDS011;3541;53.230;10.518;2024-01-11T07:26:44;56.60;;;23.40;;
7001;SDS011;3541;53.230;10.518;2024-01-11T07:29:11;48.03;;;23.77;;
7001;SDS011;3541;53.230;10.518;2024-01-11T07:31:37;57.67;;;25.90;;
7001;SDS011;3541;53.230;10.518;2024-01-11T07:34:05;55.37;;;24.33;;
7001;SDS011;3541;53.230;10.518;2024-01-11T07:36:32;52.13;;;24.10;;
7001;SDS011;3541;53.230;10.518;2024-01-11T07:38:58;52.80;;;22.37;;
7001;SDS011;3541;53.230;10.518;2024-01-11T07:41:25;54.63;;;22.73;;
7001;SDS011;3541;53.230;10.518;2024-01-11T07:43:51;50.73;;;23.97;;
7001;SDS011;3541;53.230;10.518;2024-01-11T07:46:23;56.77;;;24.77;;
7001;SDS011;3541;53.230;10.518;2024-01-11T07:48:49;62.70;;;26.50;;
7001;SDS011;3541;53.230;10.518;2024-01-11T07:51:17;59.80;;;25.83;;
7001;SDS011;3541;53.230;10.518;2024-01-11T07:53:44;55.67;;;23.83;;
7001;SDS011;3541;53.230;10.518;2024-01-11T07:56:11;60.67;;;24.83;;
7001;SDS011;3541;53.230;10.518;2024-01-11T07:58:38;59.83;;;25.90;;
7001;SDS011;3541;53.230;10.518;2024-01-11T08:01:06;60.57;;;24.60;;
7001;SDS011;3541;53.230;10.518;2024-01-11T08:03:33;55.30;;;23.53;;
7001;SDS011;3541;53.230;10.518;2024-01-11T08:06:00;59.10;;;25.67;;
7001;SDS011;3541;53.230;10.518;2024-01-11T08:08:28;86.17;;;35.83;;
7001;SDS011;3541;53.230;10.518;2024-01-11T08:10:54;75.90;;;30.83;;
7001;SDS011;3541;53.230;10.518;2024-01-11T08:13:21;81.53;;;31.57;;
7001;SDS011;3541;53.230;10.518;2024-01-11T08:15:48;68.50;;;27.67;;
7001;SDS011;3541;53.230;10.518;2024-01-11T08:18:14;68.13;;;25.80;;
7001;SDS011;3541;53.230;10.518;2024-01-11T08:20:41;74.07;;;27.77;;
7001;SDS011;3541;53.230;10.518;2024-01-11T08:23:07;66.03;;;26.40;;
7001;SDS011;3541;53.230;10.518;2024-01-11T08:25:35;64.93;;;26.87;;
7001;SDS011;3541;53.230;10.518;2024-01-11T08:28:02;69.37;;;27.47;;
7001;SDS011;3541;53.230;10.518;2024-01-11T08:30:29;71.07;;;28.33;;
7001;SDS011;3541;53.230;10.518;2024-01-11T08:32:55;69.47;;;28.50;;
7001;SDS011;3541;53.230;10.518;2024-01-11T08:35:22;65.07;;;27.27;;
7001;SDS011;3541;53.230;10.518;2024-01-11T08:37:48;72.27;;;27.70;;
7001;SDS011;3541;53.230;10.518;2024-01-11T08:40:15;67.03;;;28.23;;
7001;SDS011;3541;53.230;10.518;2024-01-11T08:42:43;68.93;;;27.50;;
7001;SDS011;3541;53.230;10.518;2024-01-11T08:45:10;73.30;;;28.53;;
7001;SDS011;3541;53.230;10.518;2024-01-11T08:47:42;68.40;;;27.17;;
7001;SDS011;3541;53.230;10.518;2024-01-11T08:50:11;68.90;;;28.37;;
7001;SDS011;3541;53.230;10.518;2024-01-11T08:52:38;75.07;;;28.33;;
7001;SDS011;3541;53.230;10.518;2024-01-11T08:55:05;73.13;;;28.10;;
7001;SDS011;3541;53.230;10.518;2024-01-11T08:57:32;74.83;;;30.63;;
7001;SDS011;3541;53.230;10.518;2024-01-11T09:00:01;78.97;;;29.13;;
7001;SDS011;3541;53.230;10.518;2024-01-11T09:02:29;79.00;;;31.80;;
7001;SDS011;3541;53.230;10.518;2024-01-11T09:04:55;71.93;;;28.43;;
7001;SDS011;3541;53.230;10.518;2024-01-11T09:07:22;76.03;;;30.37;;
7001;SDS011;3541;53.230;10.518;2024-01-11T09:09:48;75.57;;;28.43;;
7001;SDS011;3541;53.230;10.518;2024-01-11T09:12:15;76.90;;;28.20;;
7001;SDS011;3541;53.230;10.518;2024-01-11T09:14:41;74.13;;;27.17;;
7001;SDS011;3541;53.230;10.518;2024-01-11T09:17:09;71.90;;;28.37;;
7001;SDS011;3541;53.230;10.518;2024-01-11T09:19:36;68.23;;;28.00;;
7001;SDS011;3541;53.230;10.518;2024-01-11T09:22:04;83.40;;;29.30;;
7001;SDS011;3541;53.230;10.518;2024-01-11T09:24:33;78.27;;;27.30;;
7001;SDS011;3541;53.230;10.518;2024-01-11T09:27:00;77.27;;;27.87;;
7001;SDS011;3541;53.230;10.518;2024-01-11T09:29:26;70.30;;;28.17;;
7001;SDS011;3541;53.230;10.518;2024-01-11T09:31:53;70.90;;;26.97;;
7001;SDS011;3541;53.230;10.518;2024-01-11T09:34:21;81.83;;;29.10;;
7001;SDS011;3541;53.230;10.518;2024-01-11T09:36:48;76.00;;;29.00;;
7001;SDS011;3541;53.230;10.518;2024-01-11T09:39:14;55.50;;;22.83;;
7001;SDS011;3541;53.230;10.518;2024-01-11T09:41:42;53.67;;;21.93;;
7001;SDS011;3541;53.230;10.518;2024-01-11T09:44:14;56.47;;;23.10;;
7001;SDS011;3541;53.230;10.518;2024-01-11T09:46:41;61.37;;;23.47;;
7001;SDS011;3541;53.230;10.518;2024-01-11T09:49:08;68.87;;;26.17;;
7001;SDS011;3541;53.230;10.518;2024-01-11T09:51:37;67.70;;;27.60;;
7001;SDS011;3541;53.230;10.518;2024-01-11T09:54:05;55.47;;;23.37;;
7001;SDS011;3541;53.230;10.518;2024-01-11T09:56:32;60.47;;;24.53;;
7001;SDS011;3541;53.230;10.518;2024-01-11T09:59:00;67.07;;;31.77;;
7001;SDS011;3541;53.230;10.518;2024-01-11T10:01:28;46.27;;;18.87;;
7001;SDS011;3541;53.230;10.518;2024-01-11T10:03:54;52.60;;;21.97;;
7001;SDS011;3541;53.230;10.518;2024-01-11T10:06:21;47.43;;;19.80;;
7001;SDS011;3541;53.230;10.518;2024-01-11T10:08:52;40.80;;;17.53;;
7001;SDS011;3541;53.230;10.518;2024-01-11T10:11:18;56.43;;;24.33;;
7001;SDS011;3541;53.230;10.518;2024-01-11T10:13:45;47.03;;;18.70;;
7001;SDS011;3541;53.230;10.518;2024-01-11T10:16:12;45.00;;;18.97;;
7001;SDS011;3541;53.230;10.518;2024-01-11T10:18:38;40.93;;;16.40;;
7001;SDS011;3541;53.230;10.518;2024-01-11T10:21:05;42.90;;;18.63;;
7001;SDS011;3541;53.230;10.518;2024-01-11T10:23:33;48.73;;;17.83;;
7001;SDS011;3541;53.230;10.518;2024-01-11T10:26:01;53.13;;;23.03;;
7001;SDS011;3541;53.230;10.518;2024-01-11T10:28:28;50.87;;;21.03;;
7001;SDS011;3541;53.230;10.518;2024-01-11T10:30:55;52.97;;;23.00;;
7001;SDS011;3541;53.230;10.518;2024-01-11T10:33:22;44.83;;;17.37;;
7001;SDS011;3541;53.230;10.518;2024-01-11T10:35:49;68.27;;;23.10;;
7001;SDS011;3541;53.230;10.518;2024-01-11T10:38:16;57.73;;;19.30;;
7001;SDS011;3541;53.230;10.518;2024-01-11T10:40:43;62.40;;;25.43;;
7001;SDS011;3541;53.230;10.518;2024-01-11T10:43:12;37.53;;;15.73;;
7001;SDS011;3541;53.230;10.518;2024-01-11T10:45:41;49.27;;;21.80;;
7001;SDS011;3541;53.230;10.518;2024-01-11T10:48:12;42.17;;;16.37;;
7001;SDS011;3541;53.230;10.518;2024-01-11T10:50:41;47.87;;;16.30;;
7001;SDS011;3541;53.230;10.518;2024-01-11T10:53:12;47.10;;;18.73;;
7001;SDS011;3541;53.230;10.518;2024-01-11T10:55:50;91.37;;;35.63;;
7001;SDS011;3541;53.230;10.518;2024-01-11T10:58:19;55.90;;;23.37;;
7001;SDS011;3541;53.230;10.518;2024-01-11T11:00:46;41.37;;;17.37;;
7001;SDS011;3541;53.230;10.518;2024-01-11T11:03:14;39.70;;;17.60;;
7001;SDS011;3541;53.230;10.518;2024-01-11T11:05:43;43.23;;;17.93;;
7001;SDS011;3541;53.230;10.518;2024-01-11T11:08:11;54.43;;;23.77;;
7001;SDS011;3541;53.230;10.518;2024-01-11T11:10:39;52.10;;;21.10;;
7001;SDS011;3541;53.230;10.518;2024-01-11T11:13:08;50.70;;;22.03;;
7001;SDS011;3541;53.230;10.518;2024-01-11T11:15:37;40.67;;;15.90;;
7001;SDS011;3541;53.230;10.518;2024-01-11T11:18:05;39.00;;;15.00;;
7001;SDS011;3541;53.230;10.518;2024-01-11T11:20:32;44.10;;;18.00;;
7001;SDS011;3541;53.230;10.518;2024-01-11T11:23:08;41.13;;;14.10;;
7001;SDS011;3541;53.230;10.518;2024-01-11T11:25:36;37.47;;;14.13;;
7001;SDS011;3541;53.230;10.518;2024-01-11T11:28:04;36.93;;;13.73;;
7001;SDS011;3541;53.230;10.518;2024-01-11T11:30:31;42.03;;;15.43;;
7001;SDS011;3541;53.230;10.518;2024-01-11T11:32:59;34.47;;;13.50;;
7001;SDS011;3541;53.230;10.518;2024-01-11T11:35:34;40.73;;;14.93;;
7001;SDS011;3541;53.230;10.518;2024-01-11T11:38:01;38.60;;;14.87;;
7001;SDS011;3541;53.230;10.518;2024-01-11T11:40:31;37.27;;;13.80;;
7001;SDS011;3541;53.230;10.518;2024-01-11T11:43:01;34.97;;;14.20;;
7001;SDS011;3541;53.230;10.518;2024-01-11T11:45:29;36.57;;;13.63;;
7001;SDS011;3541;53.230;10.518;2024-01-11T11:47:57;35.23;;;14.77;;
7001;SDS011;3541;53.230;10.518;2024-01-11T11:50:25;38.23;;;14.70;;
7001;SDS011;3541;53.230;10.518;2024-01-11T11:52:55;42.57;;;17.57;;
7001;SDS011;3541;53.230;10.518;2024-01-11T11:55:22;40.60;;;15.33;;
7001;SDS011;3541;53.230;10.518;2024-01-11T11:57:50;41.13;;;16.23;;
7001;SDS011;3541;53.230;10.518;2024-01-11T12:00:17;45.53;;;17.77;;
7001;SDS011;3541;53.230;10.518;2024-01-11T12:02:44;36.07;;;15.30;;
7001;SDS011;3541;53.230;10.518;2024-01-11T12:05:12;41.57;;;15.77;;
7001;SDS011;3541;53.230;10.518;2024-01-11T12:07:40;44.97;;;16.33;;
7001;SDS011;3541;53.230;10.518;2024-01-11T12:10:07;43.47;;;15.63;;
7001;SDS011;3541;53.230;10.518;2024-01-11T12:12:34;43.00;;;15.67;;
7001;SDS011;3541;53.230;10.518;2024-01-11T12:15:02;41.13;;;15.87;;
7001;SDS011;3541;53.230;10.518;2024-01-11T12:17:29;53.77;;;20.70;;
7001;SDS011;3541;53.230;10.518;2024-01-11T12:19:56;46.27;;;17.00;;
7001;SDS011;3541;53.230;10.518;2024-01-11T12:22:23;47.20;;;16.93;;
7001;SDS011;3541;53.230;10.518;2024-01-11T12:24:51;40.07;;;15.53;;
7001;SDS011;3541;53.230;10.518;2024-01-11T12:27:18;37.57;;;14.00;;
7001;SDS011;3541;53.230;10.518;2024-01-11T12:29:45;41.87;;;14.83;;
7001;SDS011;3541;53.230;10.518;2024-01-11T12:32:12;35.53;;;13.60;;
7001;SDS011;3541;53.230;10.518;2024-01-11T12:34:41;40.13;;;14.17;;
7001;SDS011;3541;53.230;10.518;2024-01-11T12:37:09;38.57;;;15.37;;
7001;SDS011;3541;53.230;10.518;2024-01-11T12:39:37;35.67;;;14.07;;
7001;SDS011;3541;53.230;10.518;2024-01-11T12:42:05;41.20;;;15.20;;
7001;SDS011;3541;53.230;10.518;2024-01-11T12:44:32;43.33;;;14.90;;
7001;SDS011;3541;53.230;10.518;2024-01-11T12:47:00;37.13;;;14.20;;
7001;SDS011;3541;53.230;10.518;2024-01-11T12:49:27;35.30;;;14.37;;
7001;SDS011;3541;53.230;10.518;2024-01-11T12:51:54;41.93;;;16.47;;
7001;SDS011;3541;53.230;10.518;2024-01-11T12:54:20;33.27;;;14.17;;
7001;SDS011;3541;53.230;10.518;2024-01-11T12:56:47;39.60;;;13.57;;
7001;SDS011;3541;53.230;10.518;2024-01-11T12:59:16;32.00;;;14.00;;
7001;SDS011;3541;53.230;10.518;2024-01-11T13:01:43;38.43;;;13.97;;
7001;SDS011;3541;53.230;10.518;2024-01-11T13:04:10;35.27;;;14.30;;
7001;SDS011;3541;53.230;10.518;2024-01-11T13:06:37;38.27;;;14.13;;
7001;SDS011;3541;53.230;10.518;2024-01-11T13:09:04;35.93;;;13.23;;
7001;SDS011;3541;53.230;10.518;2024-01-11T13:11:33;37.83;;;15.13;;
7001;SDS011;3541;53.230;10.518;2024-01-11T13:13:59;36.63;;;15.10;;
7001;SDS011;3541;53.230;10.518;2024-01-11T13:16:32;38.07;;;15.03;;
7001;SDS011;3541;53.230;10.518;2024-01-11T13:18:59;43.10;;;15.60;;
7001;SDS011;3541;53.230;10.518;2024-01-11T13:21:25;45.00;;;14.80;;
7001;SDS011;3541;53.230;10.518;2024-01-11T13:23:52;51.63;;;17.93;;
7001;SDS011;3541;53.230;10.518;2024-01-11T13:26:19;50.87;;;16.13;;
7001;SDS011;3541;53.230;10.518;2024-01-11T13:28:46;58.63;;;22.33;;
7001;SDS011;3541;53.230;10.518;2024-01-11T13:31:12;47.57;;;16.43;;
7001;SDS011;3541;53.230;10.518;2024-01-11T13:33:40;48.93;;;16.80;;
7001;SDS011;3541;53.230;10.518;2024-01-11T13:36:07;48.37;;;17.60;;
7001;SDS011;3541;53.230;10.518;2024-01-11T13:38:34;55.73;;;17.57;;
7001;SDS011;3541;53.230;10.518;2024-01-11T13:41:01;50.17;;;17.47;;
7001;SDS011;3541;53.230;10.518;2024-01-11T13:43:27;50.27;;;18.07;;
7001;SDS011;3541;53.230;10.518;2024-01-11T13:45:53;57.00;;;18.40;;
7001;SDS011;3541;53.230;10.518;2024-01-11T13:48:20;57.60;;;19.37;;
7001;SDS011;3541;53.230;10.518;2024-01-11T13:50:48;55.73;;;20.93;;
7001;SDS011;3541;53.230;10.518;2024-01-11T13:53:15;64.30;;;21.03;;
7001;SDS011;3541;53.230;10.518;2024-01-11T13:55:41;57.53;;;20.27;;
7001;SDS011;3541;53.230;10.518;2024-01-11T13:58:08;64.80;;;21.20;;
7001;SDS011;3541;53.230;10.518;2024-01-11T14:00:37;61.03;;;20.50;;
7001;SDS011;3541;53.230;10.518;2024-01-11T14:03:04;75.30;;;24.43;;
7001;SDS011;3541;53.230;10.518;2024-01-11T14:05:30;66.57;;;22.23;;
7001;SDS011;3541;53.230;10.518;2024-01-11T14:07:58;64.57;;;21.97;;
7001;SDS011;3541;53.230;10.518;2024-01-11T14:10:26;57.20;;;20.03;;
7001;SDS011;3541;53.230;10.518;2024-01-11T14:12:53;57.07;;;19.43;;
7001;SDS011;3541;53.230;10.518;2024-01-11T14:15:19;57.87;;;20.30;;
7001;SDS011;3541;53.230;10.518;2024-01-11T14:17:46;68.00;;;20.90;;
7001;SDS011;3541;53.230;10.518;2024-01-11T14:20:13;67.53;;;21.50;;
7001;SDS011;3541;53.230;10.518;2024-01-11T14:22:40;76.07;;;27.13;;
7001;SDS011;3541;53.230;10.518;2024-01-11T14:25:13;70.60;;;23.97;;
7001;SDS011;3541;53.230;10.518;2024-01-11T14:27:40;91.77;;;34.07;;
7001;SDS011;3541;53.230;10.518;2024-01-11T14:30:07;68.23;;;24.90;;
7001;SDS011;3541;53.230;10.518;2024-01-11T14:32:35;68.27;;;23.33;;